Sacramento, California
Current Conditions -  °F | °C
As of 6:45 PM on Thursday 20 Nov 2014 (Local Time) from KSAC Reporting Station
Haze Haze  
Wind Chill: 55°   Ceiling: 1100
Heat Index: 55°   Visibility: 4mi
Dew Point: 54°   Wind: 0mph
Humidity: 94%   Direction: NA
Pressure: 30.02"   Gusts: NA
Location:  38.58°N, 121.49°W
Report Text: KSAC 210245Z AUTO 00000KT 4SM BR BKN011 OVC022 13/12 A3002 RMK AO2 TSNO
Loading
Personal Weather Stations






























Interactive Weather Map New forecast layout! Learn more

10-Day Weather Forecast

Advertisements
Track Severe Weather on mobile